createdAt,value
2022-12-10T00:02:05.082Z,35.03
2022-12-10T00:04:31.994Z,32.50
2022-12-10T00:06:58.519Z,36.87
2022-12-10T00:09:25.348Z,33.57
2022-12-10T00:11:51.886Z,33.67
2022-12-10T00:14:18.438Z,33.97
2022-12-10T00:16:45.198Z,33.10
2022-12-10T00:19:12.250Z,32.47
2022-12-10T00:21:39.419Z,34.67
2022-12-10T00:24:06.941Z,34.70
2022-12-10T00:26:36.403Z,34.10
2022-12-10T00:29:04.737Z,31.77
2022-12-10T00:31:34.125Z,32.60
2022-12-10T00:34:03.939Z,35.40
2022-12-10T00:36:36.490Z,33.27
2022-12-10T00:39:04.970Z,31.83
2022-12-10T00:41:31.600Z,35.50
2022-12-10T00:43:58.187Z,33.30
2022-12-10T00:46:24.910Z,33.50
2022-12-10T00:48:51.524Z,33.00
2022-12-10T00:51:23.402Z,31.70
2022-12-10T00:53:52.104Z,35.77
2022-12-10T00:56:21.443Z,32.67
2022-12-10T00:58:48.880Z,33.40
2022-12-10T01:01:32.334Z,32.57
2022-12-10T01:04:02.919Z,33.60
2022-12-10T01:06:35.500Z,32.67
2022-12-10T01:09:05.051Z,34.43
2022-12-10T01:11:35.836Z,32.77
2022-12-10T01:14:02.369Z,33.70
2022-12-10T01:17:34.064Z,33.90
2022-12-10T01:20:00.595Z,33.90
2022-12-10T01:22:27.134Z,33.10
2022-12-10T01:24:53.585Z,34.20
2022-12-10T01:27:20.087Z,34.37
2022-12-10T01:29:46.664Z,34.63
2022-12-10T01:32:13.174Z,35.10
2022-12-10T01:34:39.645Z,35.47
2022-12-10T01:37:06.176Z,33.93
2022-12-10T01:39:33.470Z,35.87
2022-12-10T01:42:01.014Z,33.73
2022-12-10T01:44:27.841Z,34.23
2022-12-10T01:46:59.646Z,30.87
2022-12-10T01:49:38.263Z,30.87
2022-12-10T01:52:06.817Z,31.20
2022-12-10T01:54:44.472Z,32.60
2022-12-10T01:57:15.421Z,33.73
2022-12-10T01:59:42.348Z,32.90
2022-12-10T02:02:27.322Z,32.40
2022-12-10T02:05:22.773Z,33.03
2022-12-10T02:08:13.794Z,34.43
2022-12-10T02:10:58.649Z,31.40
2022-12-10T02:13:30.253Z,33.13
2022-12-10T02:16:11.729Z,33.10
2022-12-10T02:18:47.538Z,34.10
2022-12-10T02:21:21.478Z,32.20
2022-12-10T02:23:52.212Z,31.87
2022-12-10T02:26:23.818Z,32.70
2022-12-10T02:29:13.596Z,30.33
2022-12-10T02:32:10.102Z,30.13
2022-12-10T02:34:38.704Z,29.50
2022-12-10T02:37:08.587Z,22.40
2022-12-10T02:39:38.136Z,28.30
2022-12-10T02:42:05.002Z,32.87
2022-12-10T02:44:32.696Z,29.60
2022-12-10T02:46:59.634Z,31.20
2022-12-10T02:49:27.705Z,29.77
2022-12-10T02:51:54.309Z,31.13
2022-12-10T02:54:39.440Z,33.13
2022-12-10T02:57:16.780Z,31.33
2022-12-10T03:00:19.387Z,31.10
2022-12-10T03:03:24.193Z,28.97
2022-12-10T03:06:18.776Z,29.23
2022-12-10T03:08:50.189Z,28.73
2022-12-10T03:11:23.024Z,29.30
2022-12-10T03:14:21.428Z,26.83
2022-12-10T03:16:55.330Z,23.37
2022-12-10T03:19:25.350Z,24.83
2022-12-10T03:21:52.565Z,23.33
2022-12-10T03:24:19.668Z,23.70
2022-12-10T03:26:48.887Z,24.63
2022-12-10T03:29:19.527Z,24.40
2022-12-10T03:31:46.692Z,28.10
2022-12-10T03:34:13.210Z,23.17
2022-12-10T03:36:40.591Z,25.50
2022-12-10T03:39:07.193Z,24.37
2022-12-10T03:41:33.687Z,25.67
2022-12-10T03:44:01.168Z,23.60
2022-12-10T03:46:29.740Z,25.60
2022-12-10T03:48:57.223Z,24.53
2022-12-10T03:51:23.749Z,23.33
2022-12-10T03:53:50.653Z,22.67
2022-12-10T03:56:18.376Z,22.37
2022-12-10T03:58:44.864Z,21.20
2022-12-10T04:01:11.630Z,22.37
2022-12-10T04:03:39.937Z,20.60
2022-12-10T04:06:09.058Z,20.07
2022-12-10T04:08:35.629Z,22.07
2022-12-10T04:11:08.261Z,22.70
2022-12-10T04:13:54.615Z,20.63
2022-12-10T04:16:27.499Z,22.83
2022-12-10T04:19:15.553Z,23.57
2022-12-10T04:22:02.375Z,20.17
2022-12-10T04:24:50.076Z,21.83
2022-12-10T04:27:22.872Z,21.90
2022-12-10T04:29:49.495Z,21.10
2022-12-10T04:32:16.143Z,21.53
2022-12-10T04:34:42.753Z,20.93
2022-12-10T04:37:12.094Z,22.77
2022-12-10T04:39:39.390Z,24.80
2022-12-10T04:42:06.540Z,23.40
2022-12-10T04:44:33.118Z,23.10
2022-12-10T04:47:00.134Z,21.90
2022-12-10T04:49:26.695Z,23.17
2022-12-10T04:51:53.868Z,23.70
2022-12-10T04:54:20.721Z,24.27
2022-12-10T04:56:47.327Z,22.27
2022-12-10T04:59:14.505Z,22.73
2022-12-10T05:01:41.379Z,24.60
2022-12-10T05:04:10.593Z,24.00
2022-12-10T05:06:37.810Z,25.13
2022-12-10T05:09:05.067Z,24.93
2022-12-10T05:11:33.071Z,23.80
2022-12-10T05:14:00.509Z,24.40
2022-12-10T05:16:29.121Z,24.53
2022-12-10T05:18:56.424Z,25.50
2022-12-10T05:21:24.060Z,24.37
2022-12-10T05:23:52.202Z,25.13
2022-12-10T05:26:21.537Z,23.10
2022-12-10T05:28:53.281Z,23.93
2022-12-10T05:31:25.057Z,23.67
2022-12-10T05:33:52.316Z,23.67
2022-12-10T05:36:21.338Z,21.40
2022-12-10T05:38:48.701Z,19.23
2022-12-10T05:41:18.638Z,20.70
2022-12-10T05:43:45.685Z,19.30
2022-12-10T05:46:17.105Z,20.10
2022-12-10T05:48:43.899Z,19.60
2022-12-10T05:51:13.037Z,19.53
2022-12-10T05:53:40.128Z,20.23
2022-12-10T05:56:09.272Z,18.90
2022-12-10T05:58:37.173Z,18.83
2022-12-10T06:01:09.741Z,16.83
2022-12-10T06:03:36.583Z,16.80
2022-12-10T06:06:03.444Z,12.60
2022-12-10T06:08:29.895Z,16.77
2022-12-10T06:10:58.752Z,18.27
2022-12-10T06:13:25.343Z,19.00
2022-12-10T06:15:51.837Z,18.57
2022-12-10T06:18:18.372Z,18.50
2022-12-10T06:20:47.373Z,18.53
2022-12-10T06:23:14.534Z,19.93
2022-12-10T06:25:41.114Z,19.23
2022-12-10T06:28:08.814Z,15.60
2022-12-10T06:30:35.508Z,19.13
2022-12-10T06:33:02.236Z,18.90
2022-12-10T06:35:28.765Z,19.53
2022-12-10T06:37:55.250Z,19.10
2022-12-10T06:40:21.859Z,18.47
2022-12-10T06:42:48.329Z,18.10
2022-12-10T06:45:14.808Z,18.77
2022-12-10T06:47:43.173Z,17.30
2022-12-10T06:50:10.538Z,17.10
2022-12-10T06:52:37.488Z,18.47
2022-12-10T06:55:04.252Z,17.97
2022-12-10T06:57:30.734Z,17.57
2022-12-10T06:59:57.205Z,17.20
2022-12-10T07:02:23.836Z,17.10
2022-12-10T07:04:50.659Z,17.70
2022-12-10T07:07:17.133Z,17.47
2022-12-10T07:09:44.179Z,18.50
2022-12-10T07:12:10.674Z,17.20
2022-12-10T07:14:37.338Z,18.00
2022-12-10T07:17:04.632Z,18.67
2022-12-10T07:19:31.153Z,17.97
2022-12-10T07:21:57.633Z,15.40
2022-12-10T07:24:24.349Z,14.90
2022-12-10T07:26:51.208Z,14.40
2022-12-10T07:29:19.702Z,16.10
2022-12-10T07:31:46.762Z,16.97
2022-12-10T07:34:13.548Z,14.03
2022-12-10T07:36:40.266Z,16.50
2022-12-10T07:39:08.504Z,13.70
2022-12-10T07:41:36.907Z,13.37
2022-12-10T07:44:07.621Z,14.87
2022-12-10T07:46:34.597Z,14.33
2022-12-10T07:49:02.246Z,12.57
2022-12-10T07:51:29.408Z,14.20
2022-12-10T07:53:55.930Z,14.80
2022-12-10T07:56:23.485Z,13.13
2022-12-10T07:58:50.212Z,14.47
2022-12-10T08:01:21.077Z,14.93
2022-12-10T08:03:47.701Z,16.07
2022-12-10T08:06:16.712Z,14.93
2022-12-10T08:08:44.360Z,17.27
2022-12-10T08:11:12.648Z,16.53
2022-12-10T08:13:39.223Z,15.70
2022-12-10T08:16:09.097Z,15.30
2022-12-10T08:18:35.711Z,15.40
2022-12-10T08:21:14.674Z,20.90
2022-12-10T08:23:41.948Z,18.03
2022-12-10T08:26:11.260Z,17.90
2022-12-10T08:28:37.770Z,16.57
2022-12-10T08:31:05.817Z,15.83
2022-12-10T08:33:35.844Z,15.53
2022-12-10T08:36:03.944Z,16.17
2022-12-10T08:38:31.365Z,16.63
2022-12-10T08:40:58.111Z,15.77
2022-12-10T08:43:24.723Z,17.03
2022-12-10T08:45:51.279Z,15.97
2022-12-10T08:48:17.898Z,15.40
2022-12-10T08:50:44.385Z,14.80
2022-12-10T08:53:10.837Z,15.23
2022-12-10T08:55:45.951Z,15.10
2022-12-10T08:58:15.344Z,14.70
2022-12-10T09:00:42.067Z,14.63
2022-12-10T09:03:09.587Z,15.03
2022-12-10T09:05:36.169Z,15.23
2022-12-10T09:08:02.855Z,15.17
2022-12-10T09:10:29.573Z,14.80
2022-12-10T09:13:01.417Z,15.57
2022-12-10T09:15:39.592Z,15.57
2022-12-10T09:18:06.182Z,14.53
2022-12-10T09:20:32.650Z,16.13
2022-12-10T09:22:59.632Z,13.07
2022-12-10T09:25:26.132Z,13.97
2022-12-10T09:27:52.888Z,14.10
2022-12-10T09:30:19.567Z,12.83
2022-12-10T09:32:46.254Z,14.07
2022-12-10T09:35:12.804Z,13.13
2022-12-10T09:37:39.288Z,14.23
2022-12-10T09:40:06.387Z,14.80
2022-12-10T09:42:36.227Z,13.37
2022-12-10T09:45:29.871Z,11.77
2022-12-10T09:48:04.927Z,13.33
2022-12-10T09:50:34.744Z,12.67
2022-12-10T09:53:02.362Z,13.80
2022-12-10T09:55:35.186Z,13.87
2022-12-10T09:58:04.250Z,14.10
2022-12-10T10:00:30.735Z,13.20
2022-12-10T10:03:00.207Z,13.20
2022-12-10T10:05:31.488Z,13.37
2022-12-10T10:08:02.346Z,13.37
2022-12-10T10:10:34.013Z,14.17
2022-12-10T10:13:09.689Z,14.30
2022-12-10T10:15:41.517Z,14.70
2022-12-10T10:18:34.700Z,15.00
2022-12-10T10:21:02.137Z,13.80
2022-12-10T10:23:28.627Z,14.13
2022-12-10T10:25:55.232Z,15.10
2022-12-10T10:28:23.701Z,16.03
2022-12-10T10:30:51.704Z,16.13
2022-12-10T10:33:18.590Z,15.03
2022-12-10T10:35:58.949Z,17.10
2022-12-10T10:38:29.589Z,15.07
2022-12-10T10:41:03.883Z,16.50
2022-12-10T10:43:34.916Z,15.90
2022-12-10T10:46:13.933Z,15.20
2022-12-10T10:48:40.655Z,15.10
2022-12-10T10:51:12.868Z,16.20
2022-12-10T10:53:39.465Z,16.07
2022-12-10T10:56:17.439Z,15.37
2022-12-10T10:59:05.026Z,16.33
2022-12-10T11:01:56.512Z,15.83
2022-12-10T11:04:31.179Z,15.60
2022-12-10T11:07:01.631Z,15.83
2022-12-10T11:09:30.792Z,16.43
2022-12-10T11:12:29.755Z,15.90
2022-12-10T11:14:56.776Z,15.50
2022-12-10T11:17:25.502Z,15.30
2022-12-10T11:19:57.765Z,15.37
2022-12-10T11:22:25.572Z,15.43
2022-12-10T11:24:52.132Z,15.20
2022-12-10T11:27:37.449Z,17.33
2022-12-10T11:30:06.737Z,16.13
2022-12-10T11:33:18.399Z,16.47
2022-12-10T11:36:03.759Z,16.27
2022-12-10T11:39:16.762Z,15.33
2022-12-10T11:41:53.851Z,16.57
2022-12-10T11:44:30.079Z,17.60
2022-12-10T11:47:08.836Z,16.50
2022-12-10T11:49:44.657Z,17.27
2022-12-10T11:53:03.735Z,15.60
2022-12-10T11:55:48.956Z,15.53
2022-12-10T11:58:38.242Z,16.10
2022-12-10T12:01:11.639Z,16.87
2022-12-10T12:04:09.128Z,17.10
2022-12-10T12:06:51.447Z,18.93
2022-12-10T12:09:32.935Z,17.23
2022-12-10T12:12:02.391Z,14.87
2022-12-10T12:14:33.932Z,16.03
2022-12-10T12:17:19.828Z,15.53
2022-12-10T12:19:51.309Z,15.40
2022-12-10T12:22:28.613Z,16.50
2022-12-10T12:25:00.175Z,14.90
2022-12-10T12:27:34.910Z,14.77
2022-12-10T12:30:13.530Z,15.97
2022-12-10T12:32:48.144Z,16.40
2022-12-10T12:35:20.619Z,15.93
2022-12-10T12:37:55.523Z,15.87
2022-12-10T12:40:35.497Z,15.90
2022-12-10T12:43:10.250Z,19.13
2022-12-10T12:45:47.038Z,18.77
2022-12-10T12:48:24.886Z,18.70
2022-12-10T12:50:56.469Z,18.17
2022-12-10T12:53:24.855Z,16.50
2022-12-10T12:55:57.054Z,18.03
2022-12-10T12:58:39.894Z,19.20
2022-12-10T13:01:14.957Z,19.90
2022-12-10T13:03:42.498Z,19.43
2022-12-10T13:06:49.498Z,22.20
2022-12-10T13:09:18.721Z,20.60
2022-12-10T13:12:03.414Z,19.47
2022-12-10T13:14:35.766Z,20.33
2022-12-10T13:17:08.389Z,19.80
2022-12-10T13:19:35.332Z,16.80
2022-12-10T13:22:03.479Z,17.60
2022-12-10T13:24:46.345Z,17.33
2022-12-10T13:27:12.752Z,18.00
2022-12-10T13:29:59.465Z,20.33
2022-12-10T13:32:35.102Z,17.53
2022-12-10T13:35:15.921Z,23.13
2022-12-10T13:37:53.877Z,22.17
2022-12-10T13:40:55.239Z,21.20
2022-12-10T13:43:48.264Z,22.80
2022-12-10T13:46:36.477Z,21.93
2022-12-10T13:49:05.298Z,20.60
2022-12-10T13:51:52.439Z,20.30
2022-12-10T13:54:37.917Z,19.80
2022-12-10T13:57:42.534Z,20.93
2022-12-10T14:00:17.941Z,22.10
2022-12-10T14:02:54.083Z,21.17
2022-12-10T14:05:40.958Z,21.20
2022-12-10T14:08:11.838Z,21.60
2022-12-10T14:10:38.609Z,22.20
2022-12-10T14:13:06.086Z,21.73
2022-12-10T14:15:36.184Z,21.63
2022-12-10T14:18:16.643Z,23.23
2022-12-10T14:20:50.398Z,21.67
2022-12-10T14:23:35.228Z,20.30
2022-12-10T14:26:12.430Z,21.30
2022-12-10T14:28:41.261Z,20.33
2022-12-10T14:31:15.154Z,21.07
2022-12-10T14:33:41.944Z,20.50
2022-12-10T14:36:16.778Z,20.67
2022-12-10T14:38:46.304Z,20.17
2022-12-10T14:41:16.900Z,20.00
2022-12-10T14:43:43.511Z,20.33
2022-12-10T14:46:16.156Z,22.00
2022-12-10T14:48:47.618Z,21.70
2022-12-10T14:51:19.922Z,22.57
2022-12-10T14:53:48.505Z,22.57
2022-12-10T14:56:41.683Z,21.10
2022-12-10T14:59:21.277Z,20.83
2022-12-10T15:01:51.368Z,22.60
2022-12-10T15:04:26.227Z,24.20
2022-12-10T15:06:58.099Z,24.40
2022-12-10T15:09:26.501Z,23.90
2022-12-10T15:11:58.095Z,19.67
2022-12-10T15:14:26.173Z,21.93
2022-12-10T15:17:01.021Z,20.73
2022-12-10T15:19:29.301Z,20.23
2022-12-10T15:22:02.986Z,19.00
2022-12-10T15:24:38.594Z,20.33
2022-12-10T15:27:25.582Z,20.97
2022-12-10T15:29:52.873Z,18.40
2022-12-10T15:32:27.461Z,19.23
2022-12-10T15:35:02.675Z,19.63
2022-12-10T15:37:34.896Z,20.23
2022-12-10T15:40:04.828Z,21.80
2022-12-10T15:42:41.859Z,22.83
2022-12-10T15:45:24.982Z,22.53
2022-12-10T15:47:51.523Z,25.03
2022-12-10T15:50:18.699Z,26.33
2022-12-10T15:52:45.975Z,25.30
2022-12-10T15:55:14.504Z,26.27
2022-12-10T15:57:49.894Z,26.77
2022-12-10T16:00:25.376Z,25.37
2022-12-10T16:02:51.834Z,24.27
2022-12-10T16:05:18.341Z,26.67
2022-12-10T16:07:45.898Z,24.13
2022-12-10T16:10:14.676Z,22.47
2022-12-10T16:12:42.132Z,21.17
2022-12-10T16:15:19.048Z,22.73
2022-12-10T16:17:45.583Z,21.00
2022-12-10T16:20:20.277Z,22.20
2022-12-10T16:22:47.393Z,21.57
2022-12-10T16:25:15.186Z,21.23
2022-12-10T16:27:43.531Z,20.83
2022-12-10T16:30:22.259Z,20.47
2022-12-10T16:32:49.411Z,20.73
2022-12-10T16:35:16.667Z,22.03
2022-12-10T16:37:45.421Z,25.30
2022-12-10T16:40:13.889Z,22.50
2022-12-10T16:42:41.566Z,21.43
2022-12-10T16:45:20.310Z,23.60
2022-12-10T16:47:47.596Z,22.30
2022-12-10T16:50:15.348Z,21.07
2022-12-10T16:52:42.761Z,23.40
2022-12-10T16:55:19.176Z,20.60
2022-12-10T16:57:46.862Z,21.77
2022-12-10T17:00:22.426Z,23.03
2022-12-10T17:02:52.794Z,21.87
2022-12-10T17:05:51.476Z,20.87
2022-12-10T17:08:19.108Z,22.13
2022-12-10T17:11:04.624Z,24.23
2022-12-10T17:13:31.281Z,22.13
2022-12-10T17:15:58.395Z,22.43
2022-12-10T17:18:25.158Z,21.63
2022-12-10T17:20:51.843Z,22.87
2022-12-10T17:23:19.344Z,22.70
2022-12-10T17:25:46.291Z,22.40
2022-12-10T17:28:14.816Z,21.60
2022-12-10T17:30:41.968Z,22.77
2022-12-10T17:33:13.691Z,21.30
2022-12-10T17:35:45.195Z,22.60
2022-12-10T17:38:20.632Z,21.07
2022-12-10T17:40:47.104Z,22.13
2022-12-10T17:43:13.571Z,28.10
2022-12-10T17:45:41.479Z,25.87
2022-12-10T17:48:09.609Z,24.33
2022-12-10T17:50:38.553Z,25.00
2022-12-10T17:53:10.469Z,24.60
2022-12-10T17:55:37.851Z,23.47
2022-12-10T17:58:04.996Z,23.07
2022-12-10T18:00:33.439Z,24.97
2022-12-10T18:02:59.952Z,25.30
2022-12-10T18:05:27.123Z,22.10
2022-12-10T18:07:54.513Z,21.90
2022-12-10T18:10:24.576Z,22.67
2022-12-10T18:12:54.310Z,23.40
2022-12-10T18:15:21.993Z,22.30
2022-12-10T18:17:48.756Z,21.57
2022-12-10T18:20:23.457Z,21.13
2022-12-10T18:22:53.573Z,22.70
2022-12-10T18:25:22.680Z,22.20
2022-12-10T18:27:50.276Z,21.80
2022-12-10T18:30:19.231Z,22.30
2022-12-10T18:32:45.997Z,21.03
2022-12-10T18:35:13.081Z,21.27
2022-12-10T18:37:40.114Z,20.87
2022-12-10T18:40:12.023Z,22.73
2022-12-10T18:42:42.480Z,21.33
2022-12-10T18:45:12.581Z,21.13
2022-12-10T18:47:39.235Z,22.50
2022-12-10T18:50:16.925Z,20.90
2022-12-10T18:52:43.438Z,21.03
2022-12-10T18:55:10.196Z,21.07
2022-12-10T18:57:42.165Z,22.30
2022-12-10T19:00:16.582Z,22.00
2022-12-10T19:02:44.257Z,22.40
2022-12-10T19:05:11.018Z,23.20
2022-12-10T19:07:37.757Z,24.57
2022-12-10T19:10:06.949Z,21.70
2022-12-10T19:12:33.522Z,25.17
2022-12-10T19:15:00.229Z,24.90
2022-12-10T19:17:26.709Z,26.90
2022-12-10T19:19:53.302Z,25.90
2022-12-10T19:22:19.841Z,26.63
2022-12-10T19:24:46.370Z,27.67
2022-12-10T19:27:12.881Z,27.57
2022-12-10T19:29:41.483Z,27.67
2022-12-10T19:32:08.475Z,28.80
2022-12-10T19:34:35.921Z,30.13
2022-12-10T19:37:02.444Z,30.47
2022-12-10T19:39:30.515Z,31.37
2022-12-10T19:41:57.673Z,30.53
2022-12-10T19:44:24.289Z,30.90
2022-12-10T19:46:50.949Z,28.17
2022-12-10T19:49:18.307Z,30.20
2022-12-10T19:51:45.106Z,32.23
2022-12-10T19:54:11.800Z,31.20
2022-12-10T19:56:38.724Z,34.90
2022-12-10T19:59:15.555Z,32.87
2022-12-10T20:01:43.478Z,33.30
2022-12-10T20:04:10.107Z,32.50
2022-12-10T20:06:41.038Z,30.30
2022-12-10T20:09:18.586Z,32.33
2022-12-10T20:11:45.385Z,30.17
2022-12-10T20:14:11.839Z,31.70
2022-12-10T20:16:40.830Z,29.70
2022-12-10T20:19:07.330Z,31.47
2022-12-10T20:21:33.861Z,31.93
2022-12-10T20:24:03.330Z,28.70
2022-12-10T20:26:32.774Z,29.20
2022-12-10T20:29:00.107Z,32.97
2022-12-10T20:31:27.226Z,30.43
2022-12-10T20:33:53.759Z,29.97
2022-12-10T20:36:23.020Z,28.13
2022-12-10T20:38:49.745Z,29.47
2022-12-10T20:41:17.701Z,28.77
2022-12-10T20:43:44.519Z,28.13
2022-12-10T20:46:16.289Z,26.70
2022-12-10T20:48:43.355Z,25.63
2022-12-10T20:51:10.456Z,26.00
2022-12-10T20:53:39.073Z,26.27
2022-12-10T20:56:10.333Z,27.07
2022-12-10T20:58:36.766Z,27.03
2022-12-10T21:01:03.263Z,26.10
2022-12-10T21:03:30.033Z,28.07
2022-12-10T21:05:56.691Z,27.50
2022-12-10T21:08:23.562Z,25.77
2022-12-10T21:10:54.517Z,26.47
2022-12-10T21:13:22.632Z,26.57
2022-12-10T21:15:51.283Z,26.00
2022-12-10T21:18:19.203Z,26.77
2022-12-10T21:20:46.104Z,29.40
2022-12-10T21:23:14.047Z,26.90
2022-12-10T21:25:40.955Z,28.37
2022-12-10T21:28:07.540Z,27.77
2022-12-10T21:30:34.839Z,27.37
2022-12-10T21:33:01.859Z,28.00
2022-12-10T21:35:28.381Z,26.50
2022-12-10T21:37:54.833Z,29.40
2022-12-10T21:40:21.326Z,29.33
2022-12-10T21:43:06.409Z,27.97
2022-12-10T21:45:32.907Z,29.50
2022-12-10T21:48:00.784Z,30.43
2022-12-10T21:50:30.851Z,30.30
2022-12-10T21:52:57.456Z,30.13
2022-12-10T21:55:30.013Z,32.00
2022-12-10T21:57:57.592Z,32.23
2022-12-10T22:00:24.100Z,26.37
2022-12-10T22:02:50.703Z,32.13
2022-12-10T22:05:17.301Z,30.17
2022-12-10T22:07:43.893Z,28.53
2022-12-10T22:10:15.007Z,27.77
2022-12-10T22:12:41.830Z,28.00
2022-12-10T22:15:09.001Z,28.00
2022-12-10T22:17:36.639Z,29.03
2022-12-10T22:20:04.453Z,28.53
2022-12-10T22:22:32.207Z,29.40
2022-12-10T22:24:58.687Z,29.50
2022-12-10T22:27:25.912Z,27.90
2022-12-10T22:29:52.438Z,28.67
2022-12-10T22:32:18.901Z,29.33
2022-12-10T22:34:45.957Z,29.30
2022-12-10T22:37:12.569Z,28.83
2022-12-10T22:39:39.253Z,31.13
2022-12-10T22:42:05.761Z,27.70
2022-12-10T22:44:32.288Z,26.23
2022-12-10T22:46:58.810Z,26.60
2022-12-10T22:49:25.333Z,27.60
2022-12-10T22:51:52.095Z,29.20
2022-12-10T22:54:18.539Z,28.40
2022-12-10T22:56:45.075Z,28.43
2022-12-10T22:59:12.180Z,29.40
2022-12-10T23:01:38.871Z,28.30
2022-12-10T23:04:05.485Z,27.73
2022-12-10T23:06:32.164Z,26.97
2022-12-10T23:08:58.941Z,28.37
2022-12-10T23:11:25.515Z,26.63
2022-12-10T23:13:52.501Z,27.93
2022-12-10T23:16:19.173Z,27.70
2022-12-10T23:18:49.980Z,25.97
2022-12-10T23:21:25.588Z,26.57
2022-12-10T23:23:52.563Z,26.50
2022-12-10T23:26:19.872Z,24.40
2022-12-10T23:28:48.120Z,27.10
2022-12-10T23:31:15.666Z,25.73
2022-12-10T23:33:42.415Z,25.93
2022-12-10T23:36:10.010Z,27.80
2022-12-10T23:38:37.408Z,24.57
2022-12-10T23:41:11.680Z,24.40
2022-12-10T23:43:38.254Z,24.30
2022-12-10T23:46:06.181Z,21.07
2022-12-10T23:48:33.093Z,21.37
2022-12-10T23:51:00.252Z,22.83
2022-12-10T23:53:27.309Z,23.40
2022-12-10T23:55:54.231Z,22.60
2022-12-10T23:58:22.383Z,23.03
